Sulphur, OK (73086)

2:11 PM CDT on April 21, 2015 (GMT -0500)
KOKSULPH2 | | Change Station
CLOSE
Current Station
Personal Weather Station
Location: Sulphur, OK
Elevation: 980 ft
Nearby Weather Stations

Elev 980 ft 34.50 °N, 96.99 °W | Updated 3 seconds ago

Partly Cloudy
Partly Cloudy
70.0 °F
Feels Like 70.0 °F
N
7.6
Wind Variable Wind from SW
Gusts 13.6 mph

Today
High -- | Low -- °F
--% Chance of Precip.
Yesterday
High -- | Low -- °F
Precip. -- in
6:49 AM 8:04 PM
Waxing Crescent, 12% visible
Pressure 29.96 in
Visibility 10.0 miles
Clouds Overcast 7000 ft
Dew Point 45 °F
Humidity 40%
Rainfall 0.00 in
Snow Depth Not available.
UV 3 out of 12
Pollen 8.80 out of 12
Air Quality Not available.
Flu Activity Regional
METAR KADM 211855Z 18009KT 10SM OVC070 21/11 A2996 RMK RWY 17 / ATIS Y

More Conditions Fewer Conditions

Pressure 29.96 in
Visibility 10.0 miles
Clouds Overcast 7000 ft
Dew Point 45 °F
Humidity 40%
Rainfall 0.00 in
Snow Depth Not available.
UV 3 out of 12
Pollen 8.80 out of 12
Air Quality Not available.
Flu Activity Regional
METAR KADM 211855Z 18009KT 10SM OVC070 21/11 A2996 RMK RWY 17 / ATIS Y

More Conditions Fewer Conditions

10-Day Weather Forecast

Almanac

Astronomy

Apr. 21, 2015 Rise Set
Actual Time
Civil Twilight
Nautical Twilight
Astronomical Twilight
Moon
Length of Visible Light
Length of Day
Tomorrow will be .
, % of the Moon is Illuminated

Today's Extremes

State Highs State Lows

Community

WunderPhotos

Upload Photos

1,815,491 photos uploaded!

WunderBlogs® & News

Nearby

Air Quality

  Air Quality AQ Index Pollutant
Not available.

Snow Depth

Station Depth Elevation

Earthquake Activity

City Distance Mag. Time & Date
Minimum magnitude displayed is 2.5.

Coastal Water Temperatures

Place Temperature

Stations

Nearby Weather Stations

Station Location Temp. Windchill Dew Point Humidity Wind Precip. Elev Updated Type